sensor_id;sensor_type;location;lat;lon;timestamp;P1;durP1;ratioP1;P2;durP2;ratioP2
19358;SDS011;9815;52.334;20.890;2023-02-15T00:00:37;82.50;;;34.63;;
19358;SDS011;9815;52.334;20.890;2023-02-15T00:03:05;73.07;;;32.30;;
19358;SDS011;9815;52.334;20.890;2023-02-15T00:05:33;68.77;;;32.40;;
19358;SDS011;9815;52.334;20.890;2023-02-15T00:08:02;73.77;;;32.27;;
19358;SDS011;9815;52.334;20.890;2023-02-15T00:10:30;74.97;;;31.80;;
19358;SDS011;9815;52.334;20.890;2023-02-15T00:12:59;72.87;;;30.20;;
19358;SDS011;9815;52.334;20.890;2023-02-15T00:15:27;65.67;;;30.73;;
19358;SDS011;9815;52.334;20.890;2023-02-15T00:17:56;72.83;;;30.97;;
19358;SDS011;9815;52.334;20.890;2023-02-15T00:20:24;64.03;;;29.27;;
19358;SDS011;9815;52.334;20.890;2023-02-15T00:22:52;71.10;;;29.13;;
19358;SDS011;9815;52.334;20.890;2023-02-15T00:25:21;69.03;;;30.10;;
19358;SDS011;9815;52.334;20.890;2023-02-15T00:27:49;67.03;;;29.83;;
19358;SDS011;9815;52.334;20.890;2023-02-15T00:30:17;71.77;;;29.37;;
19358;SDS011;9815;52.334;20.890;2023-02-15T00:32:46;63.67;;;29.17;;
19358;SDS011;9815;52.334;20.890;2023-02-15T00:35:15;64.97;;;29.43;;
19358;SDS011;9815;52.334;20.890;2023-02-15T00:37:43;70.83;;;29.53;;
19358;SDS011;9815;52.334;20.890;2023-02-15T00:40:11;73.53;;;30.30;;
19358;SDS011;9815;52.334;20.890;2023-02-15T00:42:41;68.03;;;30.97;;
19358;SDS011;9815;52.334;20.890;2023-02-15T00:45:09;66.07;;;30.03;;
19358;SDS011;9815;52.334;20.890;2023-02-15T00:47:36;65.93;;;29.20;;
19358;SDS011;9815;52.334;20.890;2023-02-15T00:50:05;63.03;;;29.60;;
19358;SDS011;9815;52.334;20.890;2023-02-15T00:52:33;63.33;;;29.60;;
19358;SDS011;9815;52.334;20.890;2023-02-15T00:55:02;61.00;;;29.17;;
19358;SDS011;9815;52.334;20.890;2023-02-15T00:57:30;64.50;;;28.87;;
19358;SDS011;9815;52.334;20.890;2023-02-15T00:59:59;64.63;;;28.27;;
19358;SDS011;9815;52.334;20.890;2023-02-15T01:02:27;69.90;;;28.60;;
19358;SDS011;9815;52.334;20.890;2023-02-15T01:04:55;61.80;;;29.80;;
19358;SDS011;9815;52.334;20.890;2023-02-15T01:07:23;69.50;;;30.77;;
19358;SDS011;9815;52.334;20.890;2023-02-15T01:09:51;66.57;;;29.50;;
19358;SDS011;9815;52.334;20.890;2023-02-15T01:12:19;73.33;;;30.40;;
19358;SDS011;9815;52.334;20.890;2023-02-15T01:14:47;66.47;;;30.13;;
19358;SDS011;9815;52.334;20.890;2023-02-15T01:17:16;68.73;;;29.40;;
19358;SDS011;9815;52.334;20.890;2023-02-15T01:19:44;60.87;;;29.60;;
19358;SDS011;9815;52.334;20.890;2023-02-15T01:22:12;66.67;;;30.47;;
19358;SDS011;9815;52.334;20.890;2023-02-15T01:24:40;73.50;;;29.67;;
19358;SDS011;9815;52.334;20.890;2023-02-15T01:27:08;71.90;;;30.70;;
19358;SDS011;9815;52.334;20.890;2023-02-15T01:29:36;68.37;;;30.30;;
19358;SDS011;9815;52.334;20.890;2023-02-15T01:32:04;64.97;;;30.47;;
19358;SDS011;9815;52.334;20.890;2023-02-15T01:34:34;63.03;;;29.30;;
19358;SDS011;9815;52.334;20.890;2023-02-15T01:37:02;66.17;;;29.17;;
19358;SDS011;9815;52.334;20.890;2023-02-15T01:39:36;72.57;;;30.47;;
19358;SDS011;9815;52.334;20.890;2023-02-15T01:42:04;61.90;;;27.67;;
19358;SDS011;9815;52.334;20.890;2023-02-15T01:44:48;65.00;;;29.00;;
19358;SDS011;9815;52.334;20.890;2023-02-15T01:47:20;62.87;;;28.60;;
19358;SDS011;9815;52.334;20.890;2023-02-15T01:50:00;67.40;;;29.03;;
19358;SDS011;9815;52.334;20.890;2023-02-15T01:52:33;65.57;;;29.17;;
19358;SDS011;9815;52.334;20.890;2023-02-15T01:55:04;61.07;;;27.87;;
19358;SDS011;9815;52.334;20.890;2023-02-15T01:57:33;63.87;;;28.37;;
19358;SDS011;9815;52.334;20.890;2023-02-15T02:00:03;63.73;;;27.37;;
19358;SDS011;9815;52.334;20.890;2023-02-15T02:02:42;63.53;;;26.80;;
19358;SDS011;9815;52.334;20.890;2023-02-15T02:05:15;66.77;;;27.83;;
19358;SDS011;9815;52.334;20.890;2023-02-15T02:07:44;62.87;;;28.87;;
19358;SDS011;9815;52.334;20.890;2023-02-15T02:10:15;63.47;;;28.87;;
19358;SDS011;9815;52.334;20.890;2023-02-15T02:12:44;65.00;;;28.30;;
19358;SDS011;9815;52.334;20.890;2023-02-15T02:15:14;64.00;;;27.53;;
19358;SDS011;9815;52.334;20.890;2023-02-15T02:17:47;63.27;;;27.87;;
19358;SDS011;9815;52.334;20.890;2023-02-15T02:20:30;66.87;;;28.37;;
19358;SDS011;9815;52.334;20.890;2023-02-15T02:23:31;62.97;;;28.07;;
19358;SDS011;9815;52.334;20.890;2023-02-15T02:35:30;58.93;;;26.53;;
19358;SDS011;9815;52.334;20.890;2023-02-15T02:38:08;60.80;;;27.30;;
19358;SDS011;9815;52.334;20.890;2023-02-15T02:40:44;68.47;;;27.60;;
19358;SDS011;9815;52.334;20.890;2023-02-15T02:43:20;61.27;;;26.53;;
19358;SDS011;9815;52.334;20.890;2023-02-15T02:45:55;61.93;;;27.57;;
19358;SDS011;9815;52.334;20.890;2023-02-15T02:48:30;62.93;;;27.07;;
19358;SDS011;9815;52.334;20.890;2023-02-15T02:51:00;58.50;;;26.13;;
19358;SDS011;9815;52.334;20.890;2023-02-15T02:53:28;69.00;;;27.43;;
19358;SDS011;9815;52.334;20.890;2023-02-15T02:55:59;64.67;;;26.50;;
19358;SDS011;9815;52.334;20.890;2023-02-15T02:58:35;66.10;;;27.57;;
19358;SDS011;9815;52.334;20.890;2023-02-15T03:01:09;64.47;;;27.67;;
19358;SDS011;9815;52.334;20.890;2023-02-15T03:03:45;65.97;;;27.03;;
19358;SDS011;9815;52.334;20.890;2023-02-15T03:06:17;62.17;;;27.03;;
19358;SDS011;9815;52.334;20.890;2023-02-15T03:08:51;79.33;;;33.13;;
19358;SDS011;9815;52.334;20.890;2023-02-15T03:11:24;69.97;;;30.73;;
19358;SDS011;9815;52.334;20.890;2023-02-15T03:13:53;68.80;;;29.73;;
19358;SDS011;9815;52.334;20.890;2023-02-15T03:16:21;65.37;;;31.03;;
19358;SDS011;9815;52.334;20.890;2023-02-15T03:18:55;68.00;;;30.00;;
19358;SDS011;9815;52.334;20.890;2023-02-15T03:21:33;79.27;;;32.43;;
19358;SDS011;9815;52.334;20.890;2023-02-15T03:24:07;78.77;;;32.77;;
19358;SDS011;9815;52.334;20.890;2023-02-15T03:26:38;73.73;;;31.50;;
19358;SDS011;9815;52.334;20.890;2023-02-15T03:29:07;72.73;;;30.30;;
19358;SDS011;9815;52.334;20.890;2023-02-15T03:31:38;62.80;;;28.83;;
19358;SDS011;9815;52.334;20.890;2023-02-15T03:34:12;65.03;;;29.67;;
19358;SDS011;9815;52.334;20.890;2023-02-15T03:36:44;69.27;;;29.17;;
19358;SDS011;9815;52.334;20.890;2023-02-15T03:39:19;68.10;;;29.80;;
19358;SDS011;9815;52.334;20.890;2023-02-15T03:41:54;62.63;;;26.90;;
19358;SDS011;9815;52.334;20.890;2023-02-15T03:44:26;61.83;;;28.30;;
19358;SDS011;9815;52.334;20.890;2023-02-15T03:46:58;64.93;;;27.83;;
19358;SDS011;9815;52.334;20.890;2023-02-15T03:49:36;65.30;;;28.13;;
19358;SDS011;9815;52.334;20.890;2023-02-15T03:52:08;76.77;;;29.27;;
19358;SDS011;9815;52.334;20.890;2023-02-15T03:54:37;72.83;;;28.93;;
19358;SDS011;9815;52.334;20.890;2023-02-15T03:57:12;66.27;;;27.97;;
19358;SDS011;9815;52.334;20.890;2023-02-15T04:00:00;67.50;;;28.00;;
19358;SDS011;9815;52.334;20.890;2023-02-15T04:02:52;63.70;;;26.70;;
19358;SDS011;9815;52.334;20.890;2023-02-15T04:05:35;63.07;;;26.37;;
19358;SDS011;9815;52.334;20.890;2023-02-15T04:08:03;64.63;;;27.30;;
19358;SDS011;9815;52.334;20.890;2023-02-15T04:10:31;66.70;;;27.97;;
19358;SDS011;9815;52.334;20.890;2023-02-15T04:13:17;69.33;;;27.87;;
19358;SDS011;9815;52.334;20.890;2023-02-15T04:15:45;68.73;;;27.73;;
19358;SDS011;9815;52.334;20.890;2023-02-15T04:18:34;64.60;;;27.43;;
19358;SDS011;9815;52.334;20.890;2023-02-15T04:21:23;66.10;;;27.70;;
19358;SDS011;9815;52.334;20.890;2023-02-15T04:24:10;68.43;;;27.07;;
19358;SDS011;9815;52.334;20.890;2023-02-15T04:26:56;71.13;;;27.23;;
19358;SDS011;9815;52.334;20.890;2023-02-15T04:29:25;65.23;;;27.43;;
19358;SDS011;9815;52.334;20.890;2023-02-15T04:31:54;63.50;;;27.23;;
19358;SDS011;9815;52.334;20.890;2023-02-15T04:34:24;69.93;;;26.63;;
19358;SDS011;9815;52.334;20.890;2023-02-15T04:36:53;66.60;;;28.37;;
19358;SDS011;9815;52.334;20.890;2023-02-15T04:39:21;74.50;;;28.40;;
19358;SDS011;9815;52.334;20.890;2023-02-15T04:41:49;66.40;;;28.10;;
19358;SDS011;9815;52.334;20.890;2023-02-15T04:44:17;67.60;;;27.47;;
19358;SDS011;9815;52.334;20.890;2023-02-15T04:46:45;69.53;;;28.33;;
19358;SDS011;9815;52.334;20.890;2023-02-15T04:49:13;63.07;;;26.90;;
19358;SDS011;9815;52.334;20.890;2023-02-15T04:51:41;60.87;;;27.27;;
19358;SDS011;9815;52.334;20.890;2023-02-15T04:54:10;61.13;;;26.33;;
19358;SDS011;9815;52.334;20.890;2023-02-15T04:56:38;63.93;;;25.70;;
19358;SDS011;9815;52.334;20.890;2023-02-15T04:59:06;57.40;;;25.80;;
19358;SDS011;9815;52.334;20.890;2023-02-15T05:01:36;58.47;;;24.80;;
19358;SDS011;9815;52.334;20.890;2023-02-15T05:04:04;59.90;;;25.60;;
19358;SDS011;9815;52.334;20.890;2023-02-15T05:06:33;62.30;;;26.83;;
19358;SDS011;9815;52.334;20.890;2023-02-15T05:09:01;57.80;;;25.23;;
19358;SDS011;9815;52.334;20.890;2023-02-15T05:11:30;78.17;;;31.40;;
19358;SDS011;9815;52.334;20.890;2023-02-15T05:13:58;93.13;;;35.37;;
19358;SDS011;9815;52.334;20.890;2023-02-15T05:16:26;90.97;;;35.63;;
19358;SDS011;9815;52.334;20.890;2023-02-15T05:18:54;88.77;;;33.67;;
19358;SDS011;9815;52.334;20.890;2023-02-15T05:21:22;80.33;;;33.90;;
19358;SDS011;9815;52.334;20.890;2023-02-15T05:23:50;72.27;;;28.80;;
19358;SDS011;9815;52.334;20.890;2023-02-15T05:26:19;72.53;;;29.43;;
19358;SDS011;9815;52.334;20.890;2023-02-15T05:29:15;67.70;;;27.43;;
19358;SDS011;9815;52.334;20.890;2023-02-15T05:31:43;68.80;;;29.60;;
19358;SDS011;9815;52.334;20.890;2023-02-15T05:34:13;62.20;;;28.20;;
19358;SDS011;9815;52.334;20.890;2023-02-15T05:36:41;71.90;;;28.73;;
19358;SDS011;9815;52.334;20.890;2023-02-15T05:39:09;96.47;;;37.93;;
19358;SDS011;9815;52.334;20.890;2023-02-15T05:41:37;76.93;;;32.47;;
19358;SDS011;9815;52.334;20.890;2023-02-15T05:44:05;72.83;;;30.83;;
19358;SDS011;9815;52.334;20.890;2023-02-15T05:46:34;69.50;;;26.20;;
19358;SDS011;9815;52.334;20.890;2023-02-15T05:49:02;64.60;;;26.97;;
19358;SDS011;9815;52.334;20.890;2023-02-15T05:51:30;61.60;;;25.87;;
19358;SDS011;9815;52.334;20.890;2023-02-15T05:53:58;60.47;;;25.93;;
19358;SDS011;9815;52.334;20.890;2023-02-15T05:56:29;75.17;;;32.57;;
19358;SDS011;9815;52.334;20.890;2023-02-15T05:58:57;72.90;;;29.63;;
19358;SDS011;9815;52.334;20.890;2023-02-15T06:01:25;72.80;;;28.83;;
19358;SDS011;9815;52.334;20.890;2023-02-15T06:03:54;67.23;;;29.80;;
19358;SDS011;9815;52.334;20.890;2023-02-15T06:06:22;62.37;;;27.03;;
19358;SDS011;9815;52.334;20.890;2023-02-15T06:08:50;69.20;;;28.23;;
19358;SDS011;9815;52.334;20.890;2023-02-15T06:11:18;58.87;;;25.03;;
19358;SDS011;9815;52.334;20.890;2023-02-15T06:13:46;61.40;;;25.17;;
19358;SDS011;9815;52.334;20.890;2023-02-15T06:16:14;65.30;;;25.77;;
19358;SDS011;9815;52.334;20.890;2023-02-15T06:18:43;63.03;;;25.47;;
19358;SDS011;9815;52.334;20.890;2023-02-15T06:21:12;61.63;;;26.80;;
19358;SDS011;9815;52.334;20.890;2023-02-15T06:23:40;67.80;;;27.47;;
19358;SDS011;9815;52.334;20.890;2023-02-15T06:26:08;64.27;;;26.33;;
19358;SDS011;9815;52.334;20.890;2023-02-15T06:28:36;64.07;;;28.00;;
19358;SDS011;9815;52.334;20.890;2023-02-15T06:31:04;62.33;;;26.50;;
19358;SDS011;9815;52.334;20.890;2023-02-15T06:33:32;66.63;;;28.23;;
19358;SDS011;9815;52.334;20.890;2023-02-15T06:36:00;57.40;;;25.03;;
19358;SDS011;9815;52.334;20.890;2023-02-15T06:38:31;56.70;;;24.43;;
19358;SDS011;9815;52.334;20.890;2023-02-15T06:40:59;54.60;;;24.27;;
19358;SDS011;9815;52.334;20.890;2023-02-15T06:43:27;53.63;;;23.77;;
19358;SDS011;9815;52.334;20.890;2023-02-15T06:45:55;56.77;;;24.67;;
19358;SDS011;9815;52.334;20.890;2023-02-15T06:48:23;57.57;;;24.27;;
19358;SDS011;9815;52.334;20.890;2023-02-15T06:50:51;59.07;;;25.00;;
19358;SDS011;9815;52.334;20.890;2023-02-15T06:53:19;55.27;;;23.70;;
19358;SDS011;9815;52.334;20.890;2023-02-15T06:55:48;60.47;;;25.77;;
19358;SDS011;9815;52.334;20.890;2023-02-15T06:58:16;62.23;;;25.37;;
19358;SDS011;9815;52.334;20.890;2023-02-15T07:00:44;57.50;;;25.03;;
19358;SDS011;9815;52.334;20.890;2023-02-15T07:03:12;55.90;;;24.40;;
19358;SDS011;9815;52.334;20.890;2023-02-15T07:05:40;63.57;;;25.80;;
19358;SDS011;9815;52.334;20.890;2023-02-15T07:08:09;67.90;;;26.17;;
19358;SDS011;9815;52.334;20.890;2023-02-15T07:10:37;58.23;;;25.50;;
19358;SDS011;9815;52.334;20.890;2023-02-15T07:13:07;55.93;;;23.60;;
19358;SDS011;9815;52.334;20.890;2023-02-15T07:15:33;57.10;;;23.60;;
19358;SDS011;9815;52.334;20.890;2023-02-15T07:18:01;52.47;;;23.70;;
19358;SDS011;9815;52.334;20.890;2023-02-15T07:20:31;51.57;;;23.30;;
19358;SDS011;9815;52.334;20.890;2023-02-15T07:23:03;55.30;;;22.73;;
19358;SDS011;9815;52.334;20.890;2023-02-15T07:25:31;51.73;;;21.57;;
19358;SDS011;9815;52.334;20.890;2023-02-15T07:27:59;54.17;;;23.30;;
19358;SDS011;9815;52.334;20.890;2023-02-15T07:30:30;61.23;;;24.90;;
19358;SDS011;9815;52.334;20.890;2023-02-15T07:32:58;57.33;;;23.73;;
19358;SDS011;9815;52.334;20.890;2023-02-15T07:35:47;56.47;;;23.70;;
19358;SDS011;9815;52.334;20.890;2023-02-15T07:38:16;62.30;;;24.40;;
19358;SDS011;9815;52.334;20.890;2023-02-15T07:40:44;57.40;;;24.20;;
19358;SDS011;9815;52.334;20.890;2023-02-15T07:43:13;56.07;;;24.37;;
19358;SDS011;9815;52.334;20.890;2023-02-15T07:45:42;61.63;;;25.30;;
19358;SDS011;9815;52.334;20.890;2023-02-15T07:48:10;63.17;;;26.90;;
19358;SDS011;9815;52.334;20.890;2023-02-15T07:50:39;60.27;;;25.53;;
19358;SDS011;9815;52.334;20.890;2023-02-15T07:53:06;60.03;;;26.93;;
19358;SDS011;9815;52.334;20.890;2023-02-15T07:55:34;56.50;;;23.67;;
19358;SDS011;9815;52.334;20.890;2023-02-15T07:58:02;53.40;;;22.87;;
19358;SDS011;9815;52.334;20.890;2023-02-15T08:00:30;49.97;;;22.67;;
19358;SDS011;9815;52.334;20.890;2023-02-15T08:03:20;57.43;;;24.57;;
19358;SDS011;9815;52.334;20.890;2023-02-15T08:05:55;57.97;;;24.73;;
19358;SDS011;9815;52.334;20.890;2023-02-15T08:08:25;56.67;;;23.00;;
19358;SDS011;9815;52.334;20.890;2023-02-15T08:11:00;64.83;;;26.07;;
19358;SDS011;9815;52.334;20.890;2023-02-15T08:13:47;55.83;;;24.67;;
19358;SDS011;9815;52.334;20.890;2023-02-15T08:16:23;59.97;;;25.10;;
19358;SDS011;9815;52.334;20.890;2023-02-15T08:18:53;59.57;;;23.03;;
19358;SDS011;9815;52.334;20.890;2023-02-15T08:21:22;52.03;;;22.90;;
19358;SDS011;9815;52.334;20.890;2023-02-15T08:23:51;53.43;;;25.03;;
19358;SDS011;9815;52.334;20.890;2023-02-15T08:26:19;49.90;;;22.03;;
19358;SDS011;9815;52.334;20.890;2023-02-15T08:28:47;48.57;;;21.70;;
19358;SDS011;9815;52.334;20.890;2023-02-15T08:31:16;52.37;;;22.73;;
19358;SDS011;9815;52.334;20.890;2023-02-15T08:33:46;50.83;;;22.00;;
19358;SDS011;9815;52.334;20.890;2023-02-15T08:36:17;56.63;;;24.07;;
19358;SDS011;9815;52.334;20.890;2023-02-15T08:38:46;56.13;;;24.37;;
19358;SDS011;9815;52.334;20.890;2023-02-15T08:41:15;60.37;;;25.33;;
19358;SDS011;9815;52.334;20.890;2023-02-15T08:43:45;56.33;;;24.20;;
19358;SDS011;9815;52.334;20.890;2023-02-15T08:46:15;60.20;;;24.37;;
19358;SDS011;9815;52.334;20.890;2023-02-15T08:48:44;60.93;;;24.17;;
19358;SDS011;9815;52.334;20.890;2023-02-15T08:51:13;51.03;;;21.03;;
19358;SDS011;9815;52.334;20.890;2023-02-15T08:53:44;52.80;;;21.80;;
19358;SDS011;9815;52.334;20.890;2023-02-15T08:56:15;52.27;;;21.50;;
19358;SDS011;9815;52.334;20.890;2023-02-15T08:58:44;55.10;;;21.43;;
19358;SDS011;9815;52.334;20.890;2023-02-15T09:01:13;53.27;;;21.03;;
19358;SDS011;9815;52.334;20.890;2023-02-15T09:03:46;47.13;;;21.90;;
19358;SDS011;9815;52.334;20.890;2023-02-15T09:06:15;50.60;;;21.93;;
19358;SDS011;9815;52.334;20.890;2023-02-15T09:08:45;50.10;;;21.50;;
19358;SDS011;9815;52.334;20.890;2023-02-15T09:11:14;48.50;;;20.23;;
19358;SDS011;9815;52.334;20.890;2023-02-15T09:13:49;47.67;;;20.20;;
19358;SDS011;9815;52.334;20.890;2023-02-15T09:16:18;52.40;;;22.30;;
19358;SDS011;9815;52.334;20.890;2023-02-15T09:18:47;43.93;;;19.97;;
19358;SDS011;9815;52.334;20.890;2023-02-15T09:21:16;42.60;;;18.80;;
19358;SDS011;9815;52.334;20.890;2023-02-15T09:23:47;44.63;;;19.20;;
19358;SDS011;9815;52.334;20.890;2023-02-15T09:26:17;42.07;;;18.00;;
19358;SDS011;9815;52.334;20.890;2023-02-15T09:28:46;41.73;;;19.33;;
19358;SDS011;9815;52.334;20.890;2023-02-15T09:31:16;44.20;;;18.93;;
19358;SDS011;9815;52.334;20.890;2023-02-15T09:33:45;43.63;;;18.47;;
19358;SDS011;9815;52.334;20.890;2023-02-15T09:36:14;47.80;;;18.67;;
19358;SDS011;9815;52.334;20.890;2023-02-15T09:38:44;42.57;;;20.07;;
19358;SDS011;9815;52.334;20.890;2023-02-15T09:41:27;45.40;;;19.97;;
19358;SDS011;9815;52.334;20.890;2023-02-15T09:44:11;43.37;;;17.90;;
19358;SDS011;9815;52.334;20.890;2023-02-15T09:46:50;40.20;;;16.13;;
19358;SDS011;9815;52.334;20.890;2023-02-15T09:49:33;37.17;;;15.60;;
19358;SDS011;9815;52.334;20.890;2023-02-15T09:52:24;40.40;;;16.70;;
19358;SDS011;9815;52.334;20.890;2023-02-15T09:55:18;41.33;;;17.77;;
19358;SDS011;9815;52.334;20.890;2023-02-15T09:57:59;40.80;;;17.00;;
19358;SDS011;9815;52.334;20.890;2023-02-15T10:00:35;38.83;;;16.27;;
19358;SDS011;9815;52.334;20.890;2023-02-15T10:03:16;39.90;;;17.80;;
19358;SDS011;9815;52.334;20.890;2023-02-15T10:06:09;44.20;;;17.67;;
19358;SDS011;9815;52.334;20.890;2023-02-15T10:11:52;43.97;;;18.50;;
19358;SDS011;9815;52.334;20.890;2023-02-15T10:14:43;44.70;;;17.13;;
19358;SDS011;9815;52.334;20.890;2023-02-15T10:17:29;41.73;;;16.93;;
19358;SDS011;9815;52.334;20.890;2023-02-15T10:20:11;34.33;;;16.33;;
19358;SDS011;9815;52.334;20.890;2023-02-15T10:22:50;45.43;;;18.17;;
19358;SDS011;9815;52.334;20.890;2023-02-15T10:25:29;43.40;;;18.37;;
19358;SDS011;9815;52.334;20.890;2023-02-15T10:28:05;45.67;;;19.10;;
19358;SDS011;9815;52.334;20.890;2023-02-15T10:30:39;53.40;;;19.03;;
19358;SDS011;9815;52.334;20.890;2023-02-15T10:33:14;47.77;;;19.80;;
19358;SDS011;9815;52.334;20.890;2023-02-15T10:35:57;56.70;;;21.87;;
19358;SDS011;9815;52.334;20.890;2023-02-15T10:38:34;60.33;;;21.67;;
19358;SDS011;9815;52.334;20.890;2023-02-15T10:41:09;54.73;;;22.50;;
19358;SDS011;9815;52.334;20.890;2023-02-15T10:43:52;58.93;;;23.20;;
19358;SDS011;9815;52.334;20.890;2023-02-15T10:46:40;62.33;;;23.40;;
19358;SDS011;9815;52.334;20.890;2023-02-15T10:52:19;54.97;;;21.10;;
19358;SDS011;9815;52.334;20.890;2023-02-15T10:54:59;68.10;;;26.40;;
19358;SDS011;9815;52.334;20.890;2023-02-15T10:57:38;71.67;;;23.83;;
19358;SDS011;9815;52.334;20.890;2023-02-15T11:00:15;60.20;;;24.00;;
19358;SDS011;9815;52.334;20.890;2023-02-15T11:02:55;69.77;;;24.17;;
19358;SDS011;9815;52.334;20.890;2023-02-15T11:05:41;50.90;;;20.20;;
19358;SDS011;9815;52.334;20.890;2023-02-15T11:08:16;43.17;;;16.40;;
19358;SDS011;9815;52.334;20.890;2023-02-15T11:10:47;46.43;;;17.03;;
19358;SDS011;9815;52.334;20.890;2023-02-15T11:13:19;41.23;;;16.77;;
19358;SDS011;9815;52.334;20.890;2023-02-15T11:15:51;43.23;;;17.00;;
19358;SDS011;9815;52.334;20.890;2023-02-15T11:18:25;41.63;;;17.87;;
19358;SDS011;9815;52.334;20.890;2023-02-15T11:21:00;45.10;;;17.63;;
19358;SDS011;9815;52.334;20.890;2023-02-15T11:23:32;45.73;;;18.00;;
19358;SDS011;9815;52.334;20.890;2023-02-15T11:26:03;54.73;;;19.87;;
19358;SDS011;9815;52.334;20.890;2023-02-15T11:28:37;48.20;;;18.93;;
19358;SDS011;9815;52.334;20.890;2023-02-15T11:31:12;47.43;;;19.87;;
19358;SDS011;9815;52.334;20.890;2023-02-15T11:33:45;47.60;;;19.43;;
19358;SDS011;9815;52.334;20.890;2023-02-15T11:36:17;44.33;;;18.33;;
19358;SDS011;9815;52.334;20.890;2023-02-15T11:38:49;50.67;;;18.73;;
19358;SDS011;9815;52.334;20.890;2023-02-15T11:41:22;48.83;;;18.70;;
19358;SDS011;9815;52.334;20.890;2023-02-15T11:43:56;46.93;;;16.97;;
19358;SDS011;9815;52.334;20.890;2023-02-15T11:46:27;38.30;;;16.20;;
19358;SDS011;9815;52.334;20.890;2023-02-15T11:48:56;41.13;;;15.93;;
19358;SDS011;9815;52.334;20.890;2023-02-15T11:51:24;39.50;;;15.80;;
19358;SDS011;9815;52.334;20.890;2023-02-15T11:53:55;36.77;;;14.87;;
19358;SDS011;9815;52.334;20.890;2023-02-15T11:56:24;35.00;;;14.97;;
19358;SDS011;9815;52.334;20.890;2023-02-15T11:58:53;31.57;;;14.57;;
19358;SDS011;9815;52.334;20.890;2023-02-15T12:01:28;32.57;;;14.03;;
19358;SDS011;9815;52.334;20.890;2023-02-15T12:04:01;32.87;;;14.17;;
19358;SDS011;9815;52.334;20.890;2023-02-15T12:06:35;38.37;;;15.40;;
19358;SDS011;9815;52.334;20.890;2023-02-15T12:09:12;40.07;;;15.80;;
19358;SDS011;9815;52.334;20.890;2023-02-15T12:11:49;42.60;;;16.60;;
19358;SDS011;9815;52.334;20.890;2023-02-15T12:14:17;35.07;;;15.43;;
19358;SDS011;9815;52.334;20.890;2023-02-15T12:16:47;37.73;;;15.67;;
19358;SDS011;9815;52.334;20.890;2023-02-15T12:19:24;38.77;;;15.60;;
19358;SDS011;9815;52.334;20.890;2023-02-15T12:21:57;45.10;;;17.20;;
19358;SDS011;9815;52.334;20.890;2023-02-15T12:24:27;45.77;;;18.90;;
19358;SDS011;9815;52.334;20.890;2023-02-15T12:26:59;40.17;;;16.83;;
19358;SDS011;9815;52.334;20.890;2023-02-15T12:29:30;39.73;;;17.67;;
19358;SDS011;9815;52.334;20.890;2023-02-15T12:32:03;40.20;;;16.77;;
19358;SDS011;9815;52.334;20.890;2023-02-15T12:34:36;43.47;;;17.70;;
19358;SDS011;9815;52.334;20.890;2023-02-15T12:37:14;40.60;;;16.67;;
19358;SDS011;9815;52.334;20.890;2023-02-15T12:39:50;44.00;;;17.90;;
19358;SDS011;9815;52.334;20.890;2023-02-15T12:42:20;39.37;;;16.70;;
19358;SDS011;9815;52.334;20.890;2023-02-15T12:44:54;44.80;;;17.67;;
19358;SDS011;9815;52.334;20.890;2023-02-15T12:47:24;51.13;;;18.17;;
19358;SDS011;9815;52.334;20.890;2023-02-15T12:50:06;52.23;;;19.37;;
19358;SDS011;9815;52.334;20.890;2023-02-15T12:52:43;41.23;;;18.17;;
19358;SDS011;9815;52.334;20.890;2023-02-15T12:55:23;46.00;;;18.47;;
19358;SDS011;9815;52.334;20.890;2023-02-15T12:58:06;45.90;;;18.50;;
19358;SDS011;9815;52.334;20.890;2023-02-15T13:00:35;48.63;;;20.10;;
19358;SDS011;9815;52.334;20.890;2023-02-15T13:03:03;47.50;;;20.37;;
19358;SDS011;9815;52.334;20.890;2023-02-15T13:05:34;51.37;;;21.53;;
19358;SDS011;9815;52.334;20.890;2023-02-15T13:08:08;56.57;;;21.87;;
19358;SDS011;9815;52.334;20.890;2023-02-15T13:10:40;59.50;;;20.87;;
19358;SDS011;9815;52.334;20.890;2023-02-15T13:13:10;54.97;;;20.80;;
19358;SDS011;9815;52.334;20.890;2023-02-15T13:15:48;55.00;;;21.40;;
19358;SDS011;9815;52.334;20.890;2023-02-15T13:18:28;51.10;;;20.50;;
19358;SDS011;9815;52.334;20.890;2023-02-15T13:21:04;56.93;;;21.53;;
19358;SDS011;9815;52.334;20.890;2023-02-15T13:23:38;56.27;;;21.70;;
19358;SDS011;9815;52.334;20.890;2023-02-15T13:26:11;55.07;;;20.23;;
19358;SDS011;9815;52.334;20.890;2023-02-15T13:28:44;53.47;;;21.13;;
19358;SDS011;9815;52.334;20.890;2023-02-15T13:31:14;54.63;;;21.60;;
19358;SDS011;9815;52.334;20.890;2023-02-15T13:33:46;54.27;;;20.73;;
19358;SDS011;9815;52.334;20.890;2023-02-15T13:36:21;61.50;;;22.90;;
19358;SDS011;9815;52.334;20.890;2023-02-15T13:41:47;63.10;;;22.93;;
19358;SDS011;9815;52.334;20.890;2023-02-15T13:44:22;64.53;;;25.73;;
19358;SDS011;9815;52.334;20.890;2023-02-15T13:47:06;66.10;;;26.80;;
19358;SDS011;9815;52.334;20.890;2023-02-15T13:49:47;58.37;;;23.80;;
19358;SDS011;9815;52.334;20.890;2023-02-15T13:52:27;55.60;;;22.03;;
19358;SDS011;9815;52.334;20.890;2023-02-15T13:55:01;51.67;;;20.10;;
19358;SDS011;9815;52.334;20.890;2023-02-15T13:57:47;48.83;;;19.53;;
19358;SDS011;9815;52.334;20.890;2023-02-15T14:00:29;54.10;;;21.87;;
19358;SDS011;9815;52.334;20.890;2023-02-15T14:03:10;52.47;;;21.47;;
19358;SDS011;9815;52.334;20.890;2023-02-15T14:06:00;57.80;;;20.67;;
19358;SDS011;9815;52.334;20.890;2023-02-15T14:08:43;47.83;;;20.40;;
19358;SDS011;9815;52.334;20.890;2023-02-15T14:11:21;50.73;;;20.23;;
19358;SDS011;9815;52.334;20.890;2023-02-15T14:13:59;50.83;;;19.80;;
19358;SDS011;9815;52.334;20.890;2023-02-15T14:16:45;48.40;;;19.33;;
19358;SDS011;9815;52.334;20.890;2023-02-15T14:19:34;54.23;;;22.37;;
19358;SDS011;9815;52.334;20.890;2023-02-15T14:22:09;59.03;;;22.50;;
19358;SDS011;9815;52.334;20.890;2023-02-15T14:24:50;63.43;;;23.80;;
19358;SDS011;9815;52.334;20.890;2023-02-15T14:27:34;54.30;;;22.40;;
19358;SDS011;9815;52.334;20.890;2023-02-15T14:30:14;53.23;;;22.00;;
19358;SDS011;9815;52.334;20.890;2023-02-15T14:32:47;56.00;;;21.77;;
19358;SDS011;9815;52.334;20.890;2023-02-15T14:35:19;60.63;;;21.97;;
19358;SDS011;9815;52.334;20.890;2023-02-15T14:37:50;56.80;;;21.30;;
19358;SDS011;9815;52.334;20.890;2023-02-15T14:40:28;58.67;;;21.40;;
19358;SDS011;9815;52.334;20.890;2023-02-15T14:43:20;52.60;;;21.00;;
19358;SDS011;9815;52.334;20.890;2023-02-15T14:45:58;53.90;;;22.30;;
19358;SDS011;9815;52.334;20.890;2023-02-15T14:48:31;54.53;;;21.23;;
19358;SDS011;9815;52.334;20.890;2023-02-15T14:51:05;60.17;;;22.77;;
19358;SDS011;9815;52.334;20.890;2023-02-15T14:53:37;63.00;;;22.37;;
19358;SDS011;9815;52.334;20.890;2023-02-15T14:56:17;63.63;;;24.83;;
19358;SDS011;9815;52.334;20.890;2023-02-15T15:01:47;60.40;;;24.13;;
19358;SDS011;9815;52.334;20.890;2023-02-15T15:04:23;60.37;;;24.33;;
19358;SDS011;9815;52.334;20.890;2023-02-15T15:07:00;61.33;;;23.50;;
19358;SDS011;9815;52.334;20.890;2023-02-15T15:09:35;68.40;;;26.03;;
19358;SDS011;9815;52.334;20.890;2023-02-15T15:12:36;76.70;;;27.73;;
19358;SDS011;9815;52.334;20.890;2023-02-15T15:15:05;82.67;;;30.97;;